createdAt,value
2024-02-23T00:00:43.101Z,8.37
2024-02-23T00:01:45.523Z,8.36
2024-02-23T00:02:46.978Z,8.35
2024-02-23T00:03:50.876Z,8.30
2024-02-23T00:04:58.469Z,8.32
2024-02-23T00:06:00.218Z,8.30
2024-02-23T00:07:03.968Z,8.23
2024-02-23T00:08:05.751Z,8.14
2024-02-23T00:09:07.274Z,8.17
2024-02-23T00:10:09.031Z,8.23
2024-02-23T00:11:10.642Z,8.20
2024-02-23T00:12:12.522Z,8.12
2024-02-23T00:13:14.109Z,8.16
2024-02-23T00:14:16.784Z,8.24
2024-02-23T00:15:18.350Z,8.29
2024-02-23T00:16:20.613Z,8.37
2024-02-23T00:17:23.165Z,8.38
2024-02-23T00:18:24.797Z,8.43
2024-02-23T00:19:26.350Z,8.44
2024-02-23T00:20:27.884Z,8.30
2024-02-23T00:21:29.344Z,8.27
2024-02-23T00:22:30.959Z,8.28
2024-02-23T00:23:32.481Z,8.29
2024-02-23T00:24:34.098Z,8.28
2024-02-23T00:25:35.541Z,8.28
2024-02-23T00:26:36.985Z,8.28
2024-02-23T00:27:40.726Z,8.30
2024-02-23T00:28:42.438Z,8.30
2024-02-23T00:29:43.948Z,8.30
2024-02-23T00:30:45.476Z,8.29
2024-02-23T00:31:46.978Z,8.23
2024-02-23T00:32:48.487Z,8.20
2024-02-23T00:33:50.358Z,8.21
2024-02-23T00:34:52.231Z,8.23
2024-02-23T00:35:53.812Z,8.19
2024-02-23T00:36:55.273Z,8.16
2024-02-23T00:37:56.747Z,8.21
2024-02-23T00:38:58.259Z,8.23
2024-02-23T00:39:59.757Z,8.24
2024-02-23T00:41:01.345Z,8.23
2024-02-23T00:42:03.002Z,8.18
2024-02-23T00:43:05.222Z,8.18
2024-02-23T00:44:07.120Z,8.18
2024-02-23T00:45:09.007Z,8.16
2024-02-23T00:46:10.546Z,8.13
2024-02-23T00:47:12.074Z,8.09
2024-02-23T00:48:14.909Z,8.07
2024-02-23T00:49:16.550Z,8.05
2024-02-23T00:50:18.424Z,8.02
2024-02-23T00:51:19.905Z,7.99
2024-02-23T00:52:21.399Z,7.98
2024-02-23T00:53:23.048Z,7.93
2024-02-23T00:54:24.614Z,7.95
2024-02-23T00:55:27.836Z,7.94
2024-02-23T00:56:35.974Z,7.93
2024-02-23T00:57:42.576Z,7.92
2024-02-23T00:58:44.098Z,7.89
2024-02-23T00:59:45.635Z,7.93
2024-02-23T01:00:47.196Z,7.89
2024-02-23T01:01:48.725Z,7.88
2024-02-23T01:02:50.243Z,7.87
2024-02-23T01:03:51.764Z,7.83
2024-02-23T01:04:57.938Z,7.81
2024-02-23T01:05:59.540Z,7.77
2024-02-23T01:07:01.077Z,7.76
2024-02-23T01:08:02.657Z,7.69
2024-02-23T01:09:05.546Z,7.64
2024-02-23T01:10:07.495Z,7.64
2024-02-23T01:11:09.029Z,7.64
2024-02-23T01:12:10.638Z,7.59
2024-02-23T01:13:12.187Z,7.56
2024-02-23T01:14:13.759Z,7.44
2024-02-23T01:15:15.898Z,7.44
2024-02-23T01:16:17.440Z,7.41
2024-02-23T01:17:18.967Z,7.38
2024-02-23T01:18:20.934Z,7.41
2024-02-23T01:19:24.669Z,7.39
2024-02-23T01:20:26.358Z,7.39
2024-02-23T01:21:27.945Z,7.35
2024-02-23T01:22:29.394Z,7.31
2024-02-23T01:23:30.915Z,7.35
2024-02-23T01:24:32.514Z,7.36
2024-02-23T01:25:36.014Z,7.34
2024-02-23T01:26:39.944Z,7.32
2024-02-23T01:27:45.627Z,7.29
2024-02-23T01:28:47.131Z,7.30
2024-02-23T01:29:48.835Z,7.29
2024-02-23T01:30:50.314Z,7.32
2024-02-23T01:31:52.749Z,7.30
2024-02-23T01:32:54.313Z,7.34
2024-02-23T01:33:55.988Z,7.27
2024-02-23T01:34:57.620Z,7.25
2024-02-23T01:35:59.363Z,7.28
2024-02-23T01:37:00.916Z,7.31
2024-02-23T01:38:02.425Z,7.33
2024-02-23T01:39:05.051Z,7.26
2024-02-23T01:40:07.332Z,7.17
2024-02-23T01:41:08.919Z,7.17
2024-02-23T01:42:12.797Z,7.13
2024-02-23T01:43:14.856Z,7.18
2024-02-23T01:44:18.253Z,7.16
2024-02-23T01:45:19.773Z,7.16
2024-02-23T01:46:21.602Z,7.12
2024-02-23T01:47:24.964Z,7.14
2024-02-23T01:48:27.224Z,7.07
2024-02-23T01:49:33.674Z,7.09
2024-02-23T01:50:35.684Z,7.08
2024-02-23T01:51:37.500Z,7.11
2024-02-23T01:52:39.041Z,7.09
2024-02-23T01:53:41.331Z,7.05
2024-02-23T01:54:43.351Z,7.03
2024-02-23T01:55:46.761Z,7.00
2024-02-23T01:56:48.305Z,6.94
2024-02-23T01:57:50.741Z,6.97
2024-02-23T01:58:53.518Z,6.96
2024-02-23T01:59:56.004Z,6.89
2024-02-23T02:00:57.598Z,6.83
2024-02-23T02:01:59.193Z,6.84
2024-02-23T02:03:00.930Z,6.78
2024-02-23T02:04:02.826Z,6.83
2024-02-23T02:05:04.694Z,6.79
2024-02-23T02:06:11.335Z,6.74
2024-02-23T02:07:13.066Z,6.73
2024-02-23T02:08:14.568Z,6.77
2024-02-23T02:09:16.329Z,6.69
2024-02-23T02:10:18.726Z,6.70
2024-02-23T02:11:20.544Z,6.75
2024-02-23T02:12:28.931Z,6.73
2024-02-23T02:13:31.449Z,6.68
2024-02-23T02:14:34.662Z,6.69
2024-02-23T02:15:36.425Z,6.72
2024-02-23T02:16:38.095Z,6.73
2024-02-23T02:17:39.820Z,6.74
2024-02-23T02:18:41.373Z,6.71
2024-02-23T02:19:48.861Z,6.73
2024-02-23T02:21:00.434Z,6.76
2024-02-23T02:22:01.974Z,6.74
2024-02-23T02:23:04.246Z,6.72
2024-02-23T02:24:06.179Z,6.75
2024-02-23T02:25:07.975Z,6.74
2024-02-23T02:26:09.665Z,6.75
2024-02-23T02:27:11.245Z,6.71
2024-02-23T02:28:12.827Z,6.67
2024-02-23T02:29:15.199Z,6.62
2024-02-23T02:30:16.765Z,6.55
2024-02-23T02:31:18.260Z,6.63
2024-02-23T02:32:19.871Z,6.61
2024-02-23T02:33:22.367Z,6.61
2024-02-23T02:34:24.384Z,6.61
2024-02-23T02:35:26.048Z,6.60
2024-02-23T02:36:27.622Z,6.59
2024-02-23T02:37:29.106Z,6.53
2024-02-23T02:38:30.703Z,6.57
2024-02-23T02:39:32.273Z,6.62
2024-02-23T02:40:33.797Z,6.61
2024-02-23T02:41:35.401Z,6.60
2024-02-23T02:42:36.991Z,6.59
2024-02-23T02:43:38.537Z,6.61
2024-02-23T02:44:40.067Z,6.57
2024-02-23T02:45:41.554Z,6.51
2024-02-23T02:46:43.222Z,6.47
2024-02-23T02:47:44.716Z,6.48
2024-02-23T02:48:46.258Z,6.50
2024-02-23T02:49:49.794Z,6.51
2024-02-23T02:50:54.409Z,6.49
2024-02-23T02:51:56.190Z,6.47
2024-02-23T02:52:57.783Z,6.47
2024-02-23T02:53:59.312Z,6.48
2024-02-23T02:55:00.828Z,6.54
2024-02-23T02:56:02.365Z,6.56
2024-02-23T02:57:03.884Z,6.55
2024-02-23T02:58:05.335Z,6.58
2024-02-23T02:59:06.822Z,6.63
2024-02-23T03:00:11.553Z,6.60
2024-02-23T03:01:13.287Z,6.56
2024-02-23T03:02:15.230Z,6.55
2024-02-23T03:03:16.764Z,6.53
2024-02-23T03:04:18.329Z,6.52
2024-02-23T03:05:19.950Z,6.50
2024-02-23T03:06:21.697Z,6.48
2024-02-23T03:07:23.221Z,6.41
2024-02-23T03:08:24.771Z,6.42
2024-02-23T03:09:26.347Z,6.46
2024-02-23T03:10:28.047Z,6.47
2024-02-23T03:11:29.586Z,6.43
2024-02-23T03:12:31.160Z,6.41
2024-02-23T03:13:32.897Z,6.43
2024-02-23T03:14:38.270Z,6.45
2024-02-23T03:15:40.531Z,6.39
2024-02-23T03:16:43.086Z,6.33
2024-02-23T03:17:44.663Z,6.31
2024-02-23T03:18:46.958Z,6.36
2024-02-23T03:19:48.627Z,6.30
2024-02-23T03:20:50.371Z,6.33
2024-02-23T03:21:51.992Z,6.36
2024-02-23T03:22:53.493Z,6.34
2024-02-23T03:23:55.051Z,6.31
2024-02-23T03:24:56.573Z,6.29
2024-02-23T03:25:58.273Z,6.26
2024-02-23T03:27:00.034Z,6.25
2024-02-23T03:28:01.666Z,6.24
2024-02-23T03:29:03.241Z,6.21
2024-02-23T03:30:06.161Z,6.15
2024-02-23T03:31:07.692Z,6.14
2024-02-23T03:32:09.358Z,6.12
2024-02-23T03:33:11.113Z,6.09
2024-02-23T03:34:14.316Z,6.06
2024-02-23T03:35:16.066Z,6.04
2024-02-23T03:36:17.551Z,6.01
2024-02-23T03:37:19.077Z,6.05
2024-02-23T03:38:20.668Z,6.07
2024-02-23T03:39:22.256Z,6.03
2024-02-23T03:40:23.768Z,6.03
2024-02-23T03:41:25.550Z,6.04
2024-02-23T03:42:27.664Z,6.05
2024-02-23T03:43:30.658Z,5.99
2024-02-23T03:44:33.476Z,5.97
2024-02-23T03:45:35.032Z,6.01
2024-02-23T03:46:36.688Z,5.99
2024-02-23T03:47:39.984Z,6.01
2024-02-23T03:48:41.758Z,5.99
2024-02-23T03:49:43.298Z,6.00
2024-02-23T03:50:44.839Z,5.99
2024-02-23T03:51:48.831Z,6.05
2024-02-23T03:52:50.366Z,6.02
2024-02-23T03:53:51.887Z,6.00
2024-02-23T03:54:55.136Z,6.02
2024-02-23T03:55:58.256Z,6.03
2024-02-23T03:56:59.966Z,6.02
2024-02-23T03:58:01.417Z,6.01
2024-02-23T03:59:02.958Z,6.00
2024-02-23T04:00:05.441Z,5.94
2024-02-23T04:01:06.933Z,5.96
2024-02-23T04:02:08.493Z,5.98
2024-02-23T04:03:10.075Z,5.94
2024-02-23T04:04:11.603Z,5.92
2024-02-23T04:05:13.790Z,5.87
2024-02-23T04:06:15.331Z,5.86
2024-02-23T04:07:16.984Z,5.87
2024-02-23T04:08:18.503Z,5.90
2024-02-23T04:09:20.128Z,5.93
2024-02-23T04:10:21.654Z,5.97
2024-02-23T04:11:23.440Z,5.95
2024-02-23T04:12:25.802Z,5.93
2024-02-23T04:13:27.406Z,5.93
2024-02-23T04:14:28.924Z,5.92
2024-02-23T04:15:30.453Z,5.93
2024-02-23T04:16:32.849Z,5.93
2024-02-23T04:17:34.438Z,5.88
2024-02-23T04:18:35.960Z,5.88
2024-02-23T04:19:37.531Z,5.85
2024-02-23T04:20:39.128Z,5.85
2024-02-23T04:21:40.951Z,5.86
2024-02-23T04:22:42.504Z,5.90
2024-02-23T04:23:47.084Z,5.99
2024-02-23T04:24:48.661Z,6.01
2024-02-23T04:25:52.169Z,5.96
2024-02-23T04:26:53.957Z,5.88
2024-02-23T04:27:55.450Z,5.85
2024-02-23T04:28:56.929Z,5.79
2024-02-23T04:29:58.517Z,5.79
2024-02-23T04:31:00.545Z,5.84
2024-02-23T04:32:02.640Z,5.90
2024-02-23T04:33:04.449Z,5.93
2024-02-23T04:34:06.158Z,5.98
2024-02-23T04:35:08.168Z,5.92
2024-02-23T04:36:09.759Z,5.84
2024-02-23T04:37:11.243Z,5.80
2024-02-23T04:38:12.744Z,5.81
2024-02-23T04:39:14.258Z,5.76
2024-02-23T04:40:15.883Z,5.74
2024-02-23T04:41:21.852Z,5.70
2024-02-23T04:42:23.428Z,5.74
2024-02-23T04:43:25.560Z,5.80
2024-02-23T04:44:27.030Z,5.74
2024-02-23T04:45:28.608Z,5.71
2024-02-23T04:46:31.065Z,5.71
2024-02-23T04:47:33.727Z,5.71
2024-02-23T04:48:37.308Z,5.75
2024-02-23T04:49:38.849Z,5.70
2024-02-23T04:50:40.372Z,5.74
2024-02-23T04:51:41.876Z,5.72
2024-02-23T04:52:43.352Z,5.70
2024-02-23T04:53:44.824Z,5.69
2024-02-23T04:54:46.329Z,5.74
2024-02-23T04:55:47.810Z,5.70
2024-02-23T04:56:49.284Z,5.78
2024-02-23T04:57:52.849Z,5.78
2024-02-23T04:58:54.412Z,5.78
2024-02-23T04:59:55.958Z,5.78
2024-02-23T05:00:57.396Z,5.79
2024-02-23T05:01:59.389Z,5.75
2024-02-23T05:03:04.380Z,5.76
2024-02-23T05:04:06.161Z,5.84
2024-02-23T05:05:08.909Z,5.90
2024-02-23T05:06:10.495Z,5.90
2024-02-23T05:07:12.038Z,5.93
2024-02-23T05:08:13.536Z,5.86
2024-02-23T05:09:15.097Z,5.84
2024-02-23T05:10:18.185Z,5.80
2024-02-23T05:11:19.680Z,5.76
2024-02-23T05:12:21.286Z,5.73
2024-02-23T05:13:22.762Z,5.74
2024-02-23T05:14:24.399Z,5.72
2024-02-23T05:15:25.884Z,5.71
2024-02-23T05:16:27.457Z,5.72
2024-02-23T05:17:31.724Z,5.67
2024-02-23T05:18:33.218Z,5.66
2024-02-23T05:19:34.812Z,5.67
2024-02-23T05:20:36.470Z,5.68
2024-02-23T05:21:37.964Z,5.70
2024-02-23T05:22:40.472Z,5.69
2024-02-23T05:23:42.130Z,5.71
2024-02-23T05:24:45.683Z,5.71
2024-02-23T05:25:47.172Z,5.69
2024-02-23T05:26:49.088Z,5.64
2024-02-23T05:27:50.658Z,5.57
2024-02-23T05:28:52.358Z,5.56
2024-02-23T05:29:54.215Z,5.68
2024-02-23T05:30:57.330Z,5.75
2024-02-23T05:32:00.970Z,5.76
2024-02-23T05:33:04.465Z,5.76
2024-02-23T05:34:12.835Z,5.72
2024-02-23T05:35:14.414Z,5.73
2024-02-23T05:36:16.942Z,5.73
2024-02-23T05:37:18.724Z,5.66
2024-02-23T05:38:20.292Z,5.64
2024-02-23T05:39:21.868Z,5.65
2024-02-23T05:40:23.437Z,5.67
2024-02-23T05:41:25.247Z,5.68
2024-02-23T05:42:27.654Z,5.74
2024-02-23T05:43:29.238Z,5.76
2024-02-23T05:44:30.762Z,5.77
2024-02-23T05:45:32.320Z,5.71
2024-02-23T05:46:34.463Z,5.77
2024-02-23T05:47:37.680Z,5.76
2024-02-23T05:48:39.273Z,5.70
2024-02-23T05:49:41.198Z,5.72
2024-02-23T05:50:42.751Z,5.65
2024-02-23T05:51:44.641Z,5.76
2024-02-23T05:52:46.197Z,5.82
2024-02-23T05:53:47.650Z,5.78
2024-02-23T05:54:52.592Z,5.76
2024-02-23T05:55:54.568Z,5.77
2024-02-23T05:56:56.143Z,5.70
2024-02-23T05:58:00.806Z,5.73
2024-02-23T05:59:02.354Z,5.74
2024-02-23T06:00:05.149Z,5.71
2024-02-23T06:01:06.787Z,5.72
2024-02-23T06:02:08.369Z,5.67
2024-02-23T06:03:09.878Z,5.64
2024-02-23T06:04:11.345Z,5.64
2024-02-23T06:05:13.842Z,5.77
2024-02-23T06:06:15.984Z,5.77
2024-02-23T06:07:17.796Z,5.72
2024-02-23T06:08:19.324Z,5.71
2024-02-23T06:09:20.816Z,5.71
2024-02-23T06:10:22.314Z,5.76
2024-02-23T06:11:23.860Z,5.82
2024-02-23T06:12:25.946Z,5.82
2024-02-23T06:13:27.453Z,5.79
2024-02-23T06:14:28.982Z,5.83
2024-02-23T06:15:30.539Z,5.81
2024-02-23T06:16:32.054Z,5.83
2024-02-23T06:17:33.732Z,5.80
2024-02-23T06:18:35.565Z,5.70
2024-02-23T06:19:37.330Z,5.67
2024-02-23T06:20:39.076Z,5.68
2024-02-23T06:21:40.724Z,5.71
2024-02-23T06:22:42.214Z,5.74
2024-02-23T06:23:44.089Z,5.71
2024-02-23T06:24:45.583Z,5.74
2024-02-23T06:25:47.730Z,5.69
2024-02-23T06:26:50.337Z,5.64
2024-02-23T06:27:51.808Z,5.76
2024-02-23T06:28:53.377Z,5.74
2024-02-23T06:29:55.050Z,5.64
2024-02-23T06:30:56.536Z,5.66
2024-02-23T06:31:58.125Z,5.71
2024-02-23T06:32:59.704Z,5.75
2024-02-23T06:34:01.430Z,5.69
2024-02-23T06:35:04.123Z,5.61
2024-02-23T06:36:06.243Z,5.61
2024-02-23T06:37:07.772Z,5.55
2024-02-23T06:38:09.267Z,5.56
2024-02-23T06:39:11.931Z,5.54
2024-02-23T06:40:13.637Z,5.48
2024-02-23T06:41:15.481Z,5.42
2024-02-23T06:42:17.083Z,5.48
2024-02-23T06:43:21.266Z,5.49
2024-02-23T06:44:24.657Z,5.41
2024-02-23T06:45:27.013Z,5.36
2024-02-23T06:46:28.469Z,5.37
2024-02-23T06:47:30.071Z,5.34
2024-02-23T06:48:31.765Z,5.37
2024-02-23T06:49:33.461Z,5.38
2024-02-23T06:50:35.096Z,5.39
2024-02-23T06:51:36.546Z,5.33
2024-02-23T06:52:38.539Z,5.37
2024-02-23T06:53:40.106Z,5.32
2024-02-23T06:54:41.704Z,5.33
2024-02-23T06:55:43.144Z,5.32
2024-02-23T06:56:44.643Z,5.36
2024-02-23T06:57:46.127Z,5.32
2024-02-23T06:58:47.615Z,5.35
2024-02-23T06:59:49.040Z,5.40
2024-02-23T07:00:50.591Z,5.39
2024-02-23T07:01:52.921Z,5.35
2024-02-23T07:02:54.491Z,5.32
2024-02-23T07:03:56.001Z,5.29
2024-02-23T07:04:58.018Z,5.19
2024-02-23T07:06:00.107Z,5.18
2024-02-23T07:07:07.692Z,5.21
2024-02-23T07:08:09.447Z,5.26
2024-02-23T07:09:12.566Z,5.28
2024-02-23T07:10:14.422Z,5.28
2024-02-23T07:11:16.069Z,5.32
2024-02-23T07:12:17.730Z,5.31
2024-02-23T07:13:20.560Z,5.27
2024-02-23T07:14:23.226Z,5.28
2024-02-23T07:15:25.742Z,5.27
2024-02-23T07:16:27.259Z,5.22
2024-02-23T07:17:29.458Z,5.26
2024-02-23T07:18:31.088Z,5.29
2024-02-23T07:19:32.606Z,5.28
2024-02-23T07:20:34.201Z,5.28
2024-02-23T07:21:35.700Z,5.30
2024-02-23T07:22:37.614Z,5.32
2024-02-23T07:23:39.503Z,5.35
2024-02-23T07:24:42.089Z,5.42
2024-02-23T07:25:43.627Z,5.43
2024-02-23T07:26:45.058Z,5.51
2024-02-23T07:27:46.645Z,5.46
2024-02-23T07:28:48.086Z,5.49
2024-02-23T07:29:50.128Z,5.48
2024-02-23T07:30:52.256Z,5.53
2024-02-23T07:31:57.099Z,5.48
2024-02-23T07:32:58.678Z,5.42
2024-02-23T07:34:00.540Z,5.49
2024-02-23T07:35:02.145Z,5.57
2024-02-23T07:36:03.955Z,5.67
2024-02-23T07:37:05.483Z,5.71
2024-02-23T07:38:06.987Z,5.73
2024-02-23T07:39:08.456Z,5.70
2024-02-23T07:40:10.347Z,5.69
2024-02-23T07:41:14.301Z,5.64
2024-02-23T07:42:19.691Z,5.65
2024-02-23T07:43:21.206Z,5.77
2024-02-23T07:44:22.780Z,5.73
2024-02-23T07:45:27.603Z,5.70
2024-02-23T07:46:29.494Z,5.74
2024-02-23T07:47:32.523Z,5.63
2024-02-23T07:48:34.392Z,5.61
2024-02-23T07:49:36.145Z,5.57
2024-02-23T07:50:37.961Z,5.55
2024-02-23T07:51:39.494Z,5.44
2024-02-23T07:52:41.016Z,5.38
2024-02-23T07:53:42.590Z,5.31
2024-02-23T07:54:44.068Z,5.37
2024-02-23T07:55:45.679Z,5.36
2024-02-23T07:56:47.123Z,5.37
2024-02-23T07:57:48.960Z,5.45
2024-02-23T07:58:50.475Z,5.57
2024-02-23T07:59:52.183Z,5.55
2024-02-23T08:00:54.195Z,5.52
2024-02-23T08:01:56.803Z,5.61
2024-02-23T08:02:58.638Z,5.63
2024-02-23T08:04:00.132Z,5.58
2024-02-23T08:05:02.215Z,5.52
2024-02-23T08:06:04.370Z,5.56
2024-02-23T08:07:06.096Z,5.49
2024-02-23T08:08:08.230Z,5.58
2024-02-23T08:09:10.519Z,5.68
2024-02-23T08:10:14.032Z,5.67
2024-02-23T08:11:15.609Z,5.62
2024-02-23T08:12:17.472Z,5.69
2024-02-23T08:13:19.116Z,5.75
2024-02-23T08:14:20.703Z,5.79
2024-02-23T08:15:22.339Z,5.75
2024-02-23T08:16:26.296Z,5.72
2024-02-23T08:17:27.951Z,5.73
2024-02-23T08:18:29.481Z,5.71
2024-02-23T08:19:31.049Z,5.70
2024-02-23T08:20:32.734Z,5.62
2024-02-23T08:21:34.266Z,5.73
2024-02-23T08:22:35.805Z,5.81
2024-02-23T08:23:37.847Z,5.80
2024-02-23T08:24:39.389Z,5.73
2024-02-23T08:25:40.943Z,5.62
2024-02-23T08:26:43.146Z,5.74
2024-02-23T08:27:44.817Z,5.83
2024-02-23T08:28:46.397Z,5.90
2024-02-23T08:29:47.887Z,5.90
2024-02-23T08:30:49.786Z,5.97
2024-02-23T08:31:51.298Z,5.96
2024-02-23T08:32:53.137Z,6.00
2024-02-23T08:33:54.867Z,6.14
2024-02-23T08:35:00.644Z,6.24
2024-02-23T08:36:02.815Z,6.30
2024-02-23T08:37:04.672Z,6.29
2024-02-23T08:38:06.324Z,6.25
2024-02-23T08:39:10.090Z,6.37
2024-02-23T08:40:13.304Z,6.49
2024-02-23T08:41:14.914Z,6.48
2024-02-23T08:42:16.477Z,6.44
2024-02-23T08:43:18.033Z,6.55
2024-02-23T08:44:19.629Z,6.57
2024-02-23T08:45:21.265Z,6.55
2024-02-23T08:46:22.852Z,6.59
2024-02-23T08:47:24.399Z,6.59
2024-02-23T08:48:26.043Z,6.48
2024-02-23T08:49:27.607Z,6.60
2024-02-23T08:50:29.262Z,6.58
2024-02-23T08:51:30.890Z,6.56
2024-02-23T08:52:32.463Z,6.59
2024-02-23T08:53:34.083Z,6.62
2024-02-23T08:54:35.622Z,6.56
2024-02-23T08:55:37.107Z,6.59
2024-02-23T08:56:43.792Z,6.73
2024-02-23T08:57:45.484Z,6.66
2024-02-23T08:58:47.065Z,6.63
2024-02-23T08:59:48.812Z,6.68
2024-02-23T09:00:50.432Z,6.77
2024-02-23T09:01:52.176Z,6.76
2024-02-23T09:02:53.845Z,6.83
2024-02-23T09:03:55.862Z,6.74
2024-02-23T09:04:57.737Z,6.66
2024-02-23T09:05:59.694Z,6.39
2024-02-23T09:07:01.594Z,6.38
2024-02-23T09:08:03.535Z,6.45
2024-02-23T09:09:05.088Z,6.43
2024-02-23T09:10:06.934Z,6.29
2024-02-23T09:11:08.519Z,6.20
2024-02-23T09:12:11.883Z,6.37
2024-02-23T09:13:13.732Z,6.38
2024-02-23T09:14:15.236Z,6.27
2024-02-23T09:15:16.829Z,6.35
2024-02-23T09:16:18.739Z,6.36
2024-02-23T09:17:21.877Z,6.36
2024-02-23T09:18:23.473Z,6.40
2024-02-23T09:19:25.107Z,6.48
2024-02-23T09:20:28.988Z,6.46
2024-02-23T09:21:31.069Z,6.48
2024-02-23T09:22:32.584Z,6.46
2024-02-23T09:23:34.282Z,6.43
2024-02-23T09:24:36.228Z,6.54
2024-02-23T09:25:38.046Z,6.55
2024-02-23T09:26:40.624Z,6.57
2024-02-23T09:27:44.767Z,6.51
2024-02-23T09:28:46.530Z,6.55
2024-02-23T09:29:47.999Z,6.53
2024-02-23T09:30:49.503Z,6.52
2024-02-23T09:31:51.078Z,6.63
2024-02-23T09:32:52.726Z,6.69
2024-02-23T09:33:56.355Z,6.70
2024-02-23T09:34:58.066Z,6.80
2024-02-23T09:35:59.791Z,6.91
2024-02-23T09:37:01.358Z,6.82
2024-02-23T09:38:03.729Z,6.91
2024-02-23T09:39:05.850Z,6.99
2024-02-23T09:40:08.120Z,6.95
2024-02-23T09:41:20.451Z,6.99
2024-02-23T09:42:27.147Z,6.89
2024-02-23T09:43:31.459Z,6.98
2024-02-23T09:44:37.555Z,7.01
2024-02-23T09:45:39.199Z,7.06
2024-02-23T09:46:41.515Z,7.01
2024-02-23T09:47:44.289Z,6.95
2024-02-23T09:48:47.007Z,6.99
2024-02-23T09:49:51.421Z,6.91
2024-02-23T09:50:53.701Z,6.97
2024-02-23T09:51:56.062Z,7.09
2024-02-23T09:53:00.153Z,7.15
2024-02-23T09:54:02.210Z,7.14
2024-02-23T09:55:04.955Z,7.23
2024-02-23T09:56:07.601Z,7.26
2024-02-23T09:57:10.307Z,7.19
2024-02-23T09:58:16.003Z,7.08
2024-02-23T09:59:17.792Z,7.06
2024-02-23T10:00:19.691Z,7.08
2024-02-23T10:01:34.170Z,7.05
2024-02-23T10:02:37.193Z,7.00
2024-02-23T10:03:39.200Z,6.94
2024-02-23T10:04:42.570Z,6.91
2024-02-23T10:05:45.603Z,6.84
2024-02-23T10:06:47.272Z,6.91
2024-02-23T10:07:48.991Z,6.99
2024-02-23T10:08:50.600Z,7.01
2024-02-23T10:09:52.168Z,7.15
2024-02-23T10:10:53.842Z,6.98
2024-02-23T10:11:56.334Z,6.93
2024-02-23T10:12:58.903Z,6.77
2024-02-23T10:14:00.484Z,6.82
2024-02-23T10:15:04.981Z,6.76
2024-02-23T10:16:14.855Z,6.71
2024-02-23T10:17:17.475Z,6.68
2024-02-23T10:18:19.641Z,6.67
2024-02-23T10:19:21.557Z,6.74
2024-02-23T10:20:23.305Z,6.70
2024-02-23T10:21:26.544Z,6.65
2024-02-23T10:22:29.786Z,6.57
2024-02-23T10:23:32.395Z,6.58
2024-02-23T10:24:35.032Z,6.62
2024-02-23T10:25:37.609Z,6.70
2024-02-23T10:26:39.200Z,6.75
2024-02-23T10:27:42.702Z,6.71
2024-02-23T10:28:44.291Z,6.77
2024-02-23T10:29:45.903Z,6.87
2024-02-23T10:30:49.119Z,7.00
2024-02-23T10:31:53.440Z,7.12
2024-02-23T10:32:58.037Z,7.15
2024-02-23T10:34:00.015Z,7.09
2024-02-23T10:35:05.285Z,7.13
2024-02-23T10:36:09.774Z,7.14
2024-02-23T10:37:11.422Z,7.17
2024-02-23T10:38:16.769Z,7.35
2024-02-23T10:39:23.846Z,7.41
2024-02-23T10:40:28.065Z,7.36
2024-02-23T10:41:35.526Z,7.30
2024-02-23T10:42:39.094Z,7.40
2024-02-23T10:43:45.869Z,7.32
2024-02-23T10:44:47.668Z,7.11
2024-02-23T10:45:50.255Z,7.21
2024-02-23T10:46:53.652Z,7.07
2024-02-23T10:47:59.714Z,7.08
2024-02-23T10:49:04.091Z,7.10
2024-02-23T10:50:08.203Z,6.77
2024-02-23T10:51:12.044Z,6.88
2024-02-23T10:52:14.859Z,6.80
2024-02-23T10:53:18.100Z,6.71
2024-02-23T10:54:21.296Z,6.56
2024-02-23T10:55:24.136Z,6.55
2024-02-23T10:56:27.089Z,6.44
2024-02-23T10:57:28.536Z,6.52
2024-02-23T10:58:30.032Z,6.53
2024-02-23T10:59:32.280Z,6.48
2024-02-23T11:00:33.934Z,6.51
2024-02-23T11:01:37.532Z,6.47
2024-02-23T11:02:46.616Z,6.46
2024-02-23T11:03:51.711Z,6.59
2024-02-23T11:04:58.733Z,6.70
2024-02-23T11:06:01.066Z,6.80
2024-02-23T11:07:06.465Z,6.95
2024-02-23T11:08:08.809Z,7.00
2024-02-23T11:09:14.561Z,7.02
2024-02-23T11:10:17.255Z,7.03
2024-02-23T11:11:21.691Z,6.88
2024-02-23T11:12:25.701Z,6.98
2024-02-23T11:14:16.711Z,7.01
2024-02-23T11:15:43.942Z,6.76
2024-02-23T11:16:45.504Z,6.79
2024-02-23T11:17:51.300Z,6.83
2024-02-23T11:19:06.015Z,6.88
2024-02-23T11:20:09.277Z,6.80
2024-02-23T11:21:11.779Z,6.87
2024-02-23T11:22:19.943Z,6.76
2024-02-23T11:23:27.707Z,6.95
2024-02-23T11:24:33.489Z,6.98
2024-02-23T11:25:36.787Z,6.99
2024-02-23T11:26:38.977Z,7.08
2024-02-23T11:27:43.746Z,7.24
2024-02-23T11:28:55.265Z,7.39
2024-02-23T11:30:05.193Z,7.24
2024-02-23T11:31:13.268Z,7.28
2024-02-23T11:32:15.979Z,7.40
2024-02-23T11:33:27.452Z,7.48
2024-02-23T11:34:29.616Z,7.53
2024-02-23T11:35:31.325Z,7.61
2024-02-23T11:36:34.389Z,7.65
2024-02-23T11:37:45.296Z,7.58
2024-02-23T11:38:47.409Z,7.47
2024-02-23T11:39:49.454Z,7.44
2024-02-23T11:40:53.610Z,7.53
2024-02-23T11:41:55.496Z,7.65
2024-02-23T11:42:57.296Z,7.63
2024-02-23T11:44:01.758Z,7.64
2024-02-23T11:45:04.029Z,7.40
2024-02-23T11:46:05.585Z,7.53
2024-02-23T11:47:08.118Z,7.48
2024-02-23T11:48:09.725Z,7.56
2024-02-23T11:49:11.425Z,7.70
2024-02-23T11:50:14.029Z,7.80
2024-02-23T11:51:16.743Z,7.66
2024-02-23T11:52:18.419Z,7.62
2024-02-23T11:53:21.877Z,7.67
2024-02-23T11:54:23.952Z,7.74
2024-02-23T11:55:25.542Z,7.74
2024-02-23T11:56:27.620Z,7.76
2024-02-23T11:57:30.949Z,7.63
2024-02-23T11:58:36.205Z,7.74
2024-02-23T11:59:37.820Z,7.81
2024-02-23T12:00:41.114Z,7.82
2024-02-23T12:01:42.990Z,7.74
2024-02-23T12:02:49.916Z,7.67
2024-02-23T12:03:52.014Z,7.76
2024-02-23T12:04:53.785Z,7.74
2024-02-23T12:05:58.363Z,7.79
2024-02-23T12:07:00.530Z,7.82
2024-02-23T12:08:02.884Z,7.74
2024-02-23T12:09:06.000Z,7.70
2024-02-23T12:10:08.523Z,7.63
2024-02-23T12:11:11.042Z,7.66
2024-02-23T12:12:13.398Z,7.74
2024-02-23T12:13:15.064Z,7.73
2024-02-23T12:14:17.717Z,7.57
2024-02-23T12:15:19.298Z,7.48
2024-02-23T12:16:23.305Z,7.46
2024-02-23T12:17:28.330Z,7.54
2024-02-23T12:18:32.970Z,7.54
2024-02-23T12:19:39.033Z,7.57
2024-02-23T12:20:40.702Z,7.49
2024-02-23T12:21:46.841Z,7.47
2024-02-23T12:22:48.966Z,7.49
2024-02-23T12:23:51.670Z,7.46
2024-02-23T12:24:53.241Z,7.56
2024-02-23T12:25:58.098Z,7.50
2024-02-23T12:26:59.673Z,7.51
2024-02-23T12:28:01.475Z,7.49
2024-02-23T12:29:04.156Z,7.49
2024-02-23T12:30:06.713Z,7.54
2024-02-23T12:31:08.545Z,7.55
2024-02-23T12:32:10.183Z,7.47
2024-02-23T12:33:12.370Z,7.51
2024-02-23T12:34:14.634Z,7.56
2024-02-23T12:35:17.495Z,7.65
2024-02-23T12:36:19.414Z,7.74
2024-02-23T12:37:23.640Z,7.52
2024-02-23T12:38:25.795Z,7.49
2024-02-23T12:39:27.778Z,7.64
2024-02-23T12:40:30.311Z,7.63
2024-02-23T12:41:32.501Z,7.76
2024-02-23T12:42:34.119Z,7.79
2024-02-23T12:43:37.049Z,7.87
2024-02-23T12:44:40.233Z,8.04
2024-02-23T12:45:41.823Z,8.09
2024-02-23T12:46:43.504Z,8.00
2024-02-23T12:47:45.066Z,7.95
2024-02-23T12:48:46.782Z,7.79
2024-02-23T12:49:48.310Z,7.86
2024-02-23T12:50:50.640Z,7.75
2024-02-23T12:51:52.281Z,7.62
2024-02-23T12:52:56.862Z,7.63
2024-02-23T12:53:58.458Z,7.58
2024-02-23T12:54:59.941Z,7.58
2024-02-23T12:56:06.330Z,7.33
2024-02-23T12:57:08.346Z,7.40
2024-02-23T12:58:09.865Z,7.35
2024-02-23T12:59:11.352Z,7.48
2024-02-23T13:00:13.617Z,7.56
2024-02-23T13:01:15.262Z,7.50
2024-02-23T13:02:17.040Z,7.36
2024-02-23T13:03:18.614Z,7.41
2024-02-23T13:04:20.154Z,7.53
2024-02-23T13:05:21.671Z,7.63
2024-02-23T13:06:23.300Z,7.54
2024-02-23T13:07:24.745Z,7.49
2024-02-23T13:08:29.181Z,7.37
2024-02-23T13:09:30.702Z,7.10
2024-02-23T13:10:32.606Z,7.20
2024-02-23T13:11:35.767Z,7.23
2024-02-23T13:12:37.304Z,7.23
2024-02-23T13:13:40.353Z,7.14
2024-02-23T13:14:43.346Z,7.10
2024-02-23T13:15:45.805Z,7.27
2024-02-23T13:16:47.342Z,7.38
2024-02-23T13:17:48.905Z,7.38
2024-02-23T13:18:50.460Z,7.44
2024-02-23T13:20:00.849Z,7.55
2024-02-23T13:21:09.849Z,7.78
2024-02-23T13:22:11.393Z,7.79
2024-02-23T13:23:13.683Z,7.83
2024-02-23T13:24:15.221Z,7.79
2024-02-23T13:25:16.860Z,7.71
2024-02-23T13:26:18.503Z,7.76
2024-02-23T13:27:20.093Z,7.67
2024-02-23T13:28:21.744Z,7.69
2024-02-23T13:29:23.272Z,7.73
2024-02-23T13:30:25.016Z,7.61
2024-02-23T13:31:26.543Z,7.72
2024-02-23T13:32:28.482Z,7.56
2024-02-23T13:33:30.127Z,7.56
2024-02-23T13:34:31.741Z,7.55
2024-02-23T13:35:33.302Z,7.55
2024-02-23T13:36:34.887Z,7.60
2024-02-23T13:37:36.355Z,7.53
2024-02-23T13:38:40.653Z,7.46
2024-02-23T13:39:42.280Z,7.42
2024-02-23T13:40:43.898Z,7.32
2024-02-23T13:41:45.605Z,7.29
2024-02-23T13:42:50.591Z,7.12
2024-02-23T13:43:52.051Z,7.10
2024-02-23T13:44:53.475Z,7.01
2024-02-23T13:45:55.585Z,6.98
2024-02-23T13:46:57.478Z,6.98
2024-02-23T13:48:00.466Z,7.04
2024-02-23T13:49:08.505Z,6.99
2024-02-23T13:50:10.482Z,6.99
2024-02-23T13:53:10.738Z,7.00
2024-02-23T13:54:12.245Z,6.86